createdAt,value
2019-01-15T00:00:25.108Z,4.95
2019-01-15T00:02:53.602Z,4.40
2019-01-15T00:05:22.385Z,4.35
2019-01-15T00:07:50.874Z,4.90
2019-01-15T00:10:19.787Z,4.50
2019-01-15T00:12:48.582Z,3.70
2019-01-15T00:15:17.155Z,3.98
2019-01-15T00:17:45.564Z,3.90
2019-01-15T00:20:14.123Z,3.20
2019-01-15T00:22:42.699Z,3.10
2019-01-15T00:25:11.476Z,3.20
2019-01-15T00:27:40.286Z,3.60
2019-01-15T00:30:10.799Z,2.87
2019-01-15T00:32:39.510Z,2.87
2019-01-15T00:35:08.807Z,2.75
2019-01-15T00:37:37.404Z,2.95
2019-01-15T00:40:09.164Z,2.80
2019-01-15T00:42:37.662Z,2.30
2019-01-15T00:45:08.943Z,3.05
2019-01-15T00:47:37.644Z,3.10
2019-01-15T00:50:07.676Z,2.43
2019-01-15T00:52:36.264Z,2.77
2019-01-15T00:55:05.037Z,3.05
2019-01-15T00:57:33.680Z,2.50
2019-01-15T01:00:02.019Z,2.80
2019-01-15T01:02:30.367Z,2.90
2019-01-15T01:04:58.920Z,3.60
2019-01-15T01:07:27.361Z,3.20
2019-01-15T01:09:55.968Z,3.67
2019-01-15T01:12:24.424Z,3.20
2019-01-15T01:14:53.110Z,3.47
2019-01-15T01:17:21.553Z,3.20
2019-01-15T01:19:50.174Z,3.90
2019-01-15T01:22:18.691Z,3.70
2019-01-15T01:24:47.254Z,3.70
2019-01-15T01:27:15.837Z,3.72
2019-01-15T01:29:46.165Z,4.17
2019-01-15T01:32:14.929Z,3.80
2019-01-15T01:34:43.600Z,3.90
2019-01-15T01:37:11.993Z,4.40
2019-01-15T01:39:40.376Z,3.67
2019-01-15T01:42:09.039Z,4.22
2019-01-15T01:44:37.607Z,4.00
2019-01-15T01:47:06.110Z,4.30
2019-01-15T01:49:35.957Z,3.40
2019-01-15T01:52:04.738Z,4.17
2019-01-15T01:54:33.128Z,4.50
2019-01-15T01:57:03.479Z,4.60
2019-01-15T01:59:31.876Z,5.30
2019-01-15T02:02:00.304Z,4.78
2019-01-15T02:04:28.848Z,4.67
2019-01-15T02:06:57.353Z,4.28
2019-01-15T02:09:25.856Z,3.65
2019-01-15T02:11:54.279Z,4.50
2019-01-15T02:14:22.680Z,4.90
2019-01-15T02:16:51.319Z,4.40
2019-01-15T02:19:19.828Z,4.65
2019-01-15T02:21:48.309Z,4.40
2019-01-15T02:24:17.354Z,4.33
2019-01-15T02:26:45.975Z,5.03
2019-01-15T02:29:14.666Z,5.50
2019-01-15T02:31:43.245Z,4.97
2019-01-15T02:34:11.801Z,5.40
2019-01-15T02:36:40.569Z,5.87
2019-01-15T02:39:09.654Z,4.97
2019-01-15T02:41:38.122Z,4.40
2019-01-15T02:44:06.888Z,4.42
2019-01-15T02:46:35.604Z,5.50
2019-01-15T02:49:03.977Z,4.30
2019-01-15T02:51:32.765Z,5.28
2019-01-15T02:54:02.546Z,5.00
2019-01-15T02:56:31.234Z,5.47
2019-01-15T02:58:59.477Z,4.90
2019-01-15T03:01:28.045Z,4.30
2019-01-15T03:03:56.401Z,5.25
2019-01-15T03:06:25.003Z,4.40
2019-01-15T03:08:53.663Z,4.83
2019-01-15T03:11:22.152Z,5.15
2019-01-15T03:13:50.907Z,4.43
2019-01-15T03:16:20.383Z,4.80
2019-01-15T03:18:49.967Z,4.60
2019-01-15T03:21:19.632Z,4.75
2019-01-15T03:23:48.025Z,4.90
2019-01-15T03:26:16.587Z,4.72
2019-01-15T03:28:45.292Z,5.55
2019-01-15T03:31:13.776Z,5.25
2019-01-15T03:33:43.657Z,4.90
2019-01-15T03:36:12.342Z,5.33
2019-01-15T03:38:40.305Z,5.92
2019-01-15T03:41:08.827Z,5.33
2019-01-15T03:43:37.257Z,5.75
2019-01-15T03:46:05.219Z,5.08
2019-01-15T03:48:34.332Z,5.75
2019-01-15T03:51:02.437Z,5.85
2019-01-15T03:53:30.675Z,5.37
2019-01-15T03:55:58.859Z,5.65
2019-01-15T03:58:27.212Z,5.42
2019-01-15T04:00:55.432Z,5.65
2019-01-15T04:03:23.871Z,5.40
2019-01-15T04:05:52.112Z,5.40
2019-01-15T04:08:20.340Z,5.60
2019-01-15T04:10:48.353Z,6.17
2019-01-15T04:13:16.570Z,6.20
2019-01-15T04:15:44.824Z,5.70
2019-01-15T04:18:14.015Z,5.62
2019-01-15T04:20:42.375Z,5.35
2019-01-15T04:23:10.491Z,5.90
2019-01-15T04:25:38.639Z,5.53
2019-01-15T04:28:07.797Z,6.00
2019-01-15T04:30:36.231Z,5.92
2019-01-15T04:33:04.588Z,6.20
2019-01-15T04:35:33.102Z,5.30
2019-01-15T04:38:01.885Z,5.35
2019-01-15T04:40:30.648Z,5.20
2019-01-15T04:43:00.062Z,5.80
2019-01-15T04:45:28.813Z,4.80
2019-01-15T04:47:59.734Z,4.33
2019-01-15T04:50:28.271Z,5.22
2019-01-15T04:53:03.239Z,4.00
2019-01-15T04:55:31.767Z,3.30
2019-01-15T04:58:00.420Z,3.40
2019-01-15T05:00:29.053Z,2.50
2019-01-15T05:03:00.879Z,2.72
2019-01-15T05:05:28.963Z,3.17
2019-01-15T05:07:57.257Z,3.33
2019-01-15T05:10:25.316Z,4.00
2019-01-15T05:12:53.636Z,3.90
2019-01-15T05:15:21.647Z,3.60
2019-01-15T05:17:49.781Z,4.40
2019-01-15T05:20:21.864Z,3.80
2019-01-15T05:22:50.773Z,4.25
2019-01-15T05:25:19.696Z,4.13
2019-01-15T05:27:47.866Z,3.27
2019-01-15T05:30:20.985Z,4.03
2019-01-15T05:32:50.948Z,3.60
2019-01-15T05:35:19.085Z,3.80
2019-01-15T05:37:47.173Z,3.92
2019-01-15T05:40:15.911Z,3.90
2019-01-15T05:42:44.079Z,3.90
2019-01-15T05:45:16.385Z,3.90
2019-01-15T05:47:44.983Z,3.90
2019-01-15T05:50:16.900Z,4.00
2019-01-15T05:52:45.140Z,4.80
2019-01-15T05:55:13.271Z,7.07
2019-01-15T05:57:41.440Z,4.62
2019-01-15T06:00:11.325Z,3.80
2019-01-15T06:02:39.340Z,3.10
2019-01-15T06:05:08.712Z,3.60
2019-01-15T06:07:36.879Z,3.17
2019-01-15T06:10:07.080Z,3.15
2019-01-15T06:12:35.203Z,3.40
2019-01-15T06:15:03.733Z,2.95
2019-01-15T06:17:32.056Z,2.77
2019-01-15T06:20:00.107Z,3.30
2019-01-15T06:22:28.334Z,3.25
2019-01-15T06:24:56.660Z,2.58
2019-01-15T06:27:24.730Z,2.40
2019-01-15T06:29:52.815Z,2.72
2019-01-15T06:32:21.951Z,2.90
2019-01-15T06:34:50.075Z,3.30
2019-01-15T06:37:18.325Z,2.70
2019-01-15T06:39:48.465Z,3.02
2019-01-15T06:42:16.605Z,2.72
2019-01-15T06:44:44.820Z,2.60
2019-01-15T06:47:13.100Z,3.30
2019-01-15T06:49:41.479Z,3.08
2019-01-15T06:52:09.529Z,3.33
2019-01-15T06:54:37.829Z,2.98
2019-01-15T06:57:05.785Z,3.10
2019-01-15T06:59:34.056Z,2.85
2019-01-15T07:02:02.189Z,2.70
2019-01-15T07:04:30.511Z,3.60
2019-01-15T07:06:58.698Z,3.47
2019-01-15T07:09:26.984Z,3.63
2019-01-15T07:11:55.272Z,3.90
2019-01-15T07:14:25.634Z,3.30
2019-01-15T07:16:53.525Z,3.30
2019-01-15T07:19:21.705Z,3.40
2019-01-15T07:21:50.051Z,3.52
2019-01-15T07:24:18.310Z,3.55
2019-01-15T07:26:46.646Z,3.80
2019-01-15T07:29:15.805Z,3.23
2019-01-15T07:31:43.993Z,3.70
2019-01-15T07:34:12.121Z,3.58
2019-01-15T07:36:40.548Z,3.70
2019-01-15T07:39:09.367Z,3.50
2019-01-15T07:41:37.737Z,3.75
2019-01-15T07:44:06.871Z,3.80
2019-01-15T07:46:35.296Z,3.80
2019-01-15T07:49:03.484Z,4.10
2019-01-15T07:51:31.688Z,4.03
2019-01-15T07:53:59.923Z,3.80
2019-01-15T07:56:28.207Z,4.30
2019-01-15T07:58:56.315Z,4.28
2019-01-15T08:01:24.834Z,4.00
2019-01-15T08:03:53.132Z,3.95
2019-01-15T08:06:21.426Z,4.15
2019-01-15T08:08:49.541Z,3.92
2019-01-15T08:11:17.837Z,4.17
2019-01-15T08:13:46.068Z,4.33
2019-01-15T08:16:14.276Z,3.90
2019-01-15T08:18:42.656Z,4.42
2019-01-15T08:21:10.855Z,4.50
2019-01-15T08:23:39.209Z,3.75
2019-01-15T08:26:07.439Z,4.20
2019-01-15T08:28:35.842Z,3.60
2019-01-15T08:31:05.282Z,4.10
2019-01-15T08:33:35.493Z,3.70
2019-01-15T08:36:03.967Z,3.90
2019-01-15T08:38:32.373Z,3.50
2019-01-15T08:41:00.381Z,3.75
2019-01-15T08:43:28.664Z,3.10
2019-01-15T08:45:56.890Z,3.45
2019-01-15T08:48:27.383Z,3.30
2019-01-15T08:50:56.589Z,4.08
2019-01-15T08:53:25.516Z,3.40
2019-01-15T08:55:57.784Z,3.10
2019-01-15T08:58:25.880Z,3.47
2019-01-15T09:00:54.123Z,3.50
2019-01-15T09:03:22.329Z,3.20
2019-01-15T09:05:50.653Z,3.20
2019-01-15T09:08:19.047Z,3.40
2019-01-15T09:10:47.352Z,3.40
2019-01-15T09:13:15.809Z,3.47
2019-01-15T09:15:44.327Z,3.40
2019-01-15T09:18:12.850Z,2.90
2019-01-15T09:20:41.022Z,2.70
2019-01-15T09:23:09.357Z,2.95
2019-01-15T09:25:37.676Z,3.00
2019-01-15T09:28:05.850Z,2.50
2019-01-15T09:30:35.135Z,2.45
2019-01-15T09:33:03.999Z,2.67
2019-01-15T09:35:32.311Z,2.72
2019-01-15T09:38:00.757Z,2.50
2019-01-15T09:40:29.279Z,2.20
2019-01-15T09:42:57.557Z,2.45
2019-01-15T09:45:25.850Z,2.20
2019-01-15T09:48:19.133Z,2.30
2019-01-15T09:50:47.471Z,2.27
2019-01-15T09:53:15.713Z,2.40
2019-01-15T09:55:44.192Z,2.27
2019-01-15T09:58:12.508Z,2.80
2019-01-15T10:00:40.731Z,2.40
2019-01-15T10:03:09.062Z,1.90
2019-01-15T10:05:37.191Z,2.10
2019-01-15T10:08:05.164Z,2.10
2019-01-15T10:10:33.370Z,2.30
2019-01-15T10:13:01.644Z,2.50
2019-01-15T10:15:29.769Z,2.45
2019-01-15T10:17:57.996Z,2.12
2019-01-15T10:20:26.274Z,2.30
2019-01-15T10:22:54.500Z,2.12
2019-01-15T10:25:29.989Z,2.60
2019-01-15T10:27:58.358Z,1.95
2019-01-15T10:30:50.224Z,2.05
2019-01-15T10:33:31.936Z,2.37
2019-01-15T10:35:59.159Z,2.20
2019-01-15T10:38:29.204Z,2.30
2019-01-15T10:40:58.000Z,2.20
2019-01-15T10:43:27.355Z,2.00
2019-01-15T10:45:58.501Z,2.20
2019-01-15T10:48:26.633Z,1.92
2019-01-15T10:50:54.845Z,2.10
2019-01-15T10:53:23.340Z,1.95
2019-01-15T10:55:51.709Z,1.70
2019-01-15T10:58:20.225Z,1.90
2019-01-15T11:00:48.546Z,1.60
2019-01-15T11:03:16.586Z,1.60
2019-01-15T11:05:45.003Z,1.57
2019-01-15T11:08:13.276Z,1.52
2019-01-15T11:10:41.543Z,1.20
2019-01-15T11:13:09.869Z,1.60
2019-01-15T11:15:43.140Z,1.50
2019-01-15T11:18:08.076Z,1.75
2019-01-15T11:20:37.192Z,1.52
2019-01-15T11:23:05.444Z,1.30
2019-01-15T11:25:33.661Z,1.40
2019-01-15T11:28:01.931Z,1.30
2019-01-15T11:30:30.316Z,1.20
2019-01-15T11:32:58.396Z,1.40
2019-01-15T11:35:28.365Z,1.60
2019-01-15T11:37:56.448Z,1.12
2019-01-15T11:40:24.639Z,1.25
2019-01-15T11:42:52.927Z,1.40
2019-01-15T11:45:20.980Z,1.30
2019-01-15T11:47:50.090Z,1.40
2019-01-15T11:50:18.490Z,1.60
2019-01-15T11:52:46.685Z,1.40
2019-01-15T11:55:14.962Z,1.60
2019-01-15T11:57:43.272Z,1.20
2019-01-15T12:00:20.297Z,1.32
2019-01-15T12:02:56.080Z,1.50
2019-01-15T12:05:39.683Z,1.40
2019-01-15T12:08:21.233Z,1.50
2019-01-15T12:11:08.771Z,1.47
2019-01-15T12:14:05.589Z,1.40
2019-01-15T12:16:57.685Z,1.30
2019-01-15T12:19:35.840Z,1.30
2019-01-15T12:22:22.212Z,1.05
2019-01-15T12:25:18.436Z,1.40
2019-01-15T12:27:56.312Z,1.27
2019-01-15T12:30:43.857Z,1.25
2019-01-15T12:33:46.839Z,1.90
2019-01-15T12:36:32.986Z,1.60
2019-01-15T12:39:20.520Z,1.40
2019-01-15T12:42:16.265Z,1.30
2019-01-15T12:45:21.720Z,1.70
2019-01-15T12:48:09.199Z,1.77
2019-01-15T12:50:56.471Z,2.00
2019-01-15T12:53:42.356Z,1.90
2019-01-15T12:56:28.241Z,1.87
2019-01-15T12:59:06.639Z,1.90
2019-01-15T13:01:52.748Z,2.10
2019-01-15T13:04:34.635Z,2.15
2019-01-15T13:07:34.412Z,2.08
2019-01-15T13:10:20.448Z,2.20
2019-01-15T13:13:03.684Z,2.15
2019-01-15T13:15:57.322Z,2.08
2019-01-15T13:18:39.644Z,2.37
2019-01-15T13:21:35.974Z,2.20
2019-01-15T13:24:27.079Z,2.30
2019-01-15T13:27:20.368Z,2.47
2019-01-15T13:30:00.675Z,2.50
2019-01-15T13:32:57.479Z,2.70
2019-01-15T13:35:46.773Z,2.98
2019-01-15T13:38:52.750Z,2.80
2019-01-15T13:41:40.397Z,3.05
2019-01-15T13:44:32.277Z,3.12
2019-01-15T13:47:37.949Z,3.10
2019-01-15T13:50:28.515Z,3.42
2019-01-15T13:53:29.204Z,3.40
2019-01-15T13:56:20.003Z,3.50
2019-01-15T13:59:07.478Z,3.60
2019-01-15T14:01:51.710Z,3.72
2019-01-15T14:04:39.191Z,3.52
2019-01-15T14:07:25.078Z,3.37
2019-01-15T14:10:15.832Z,3.80
2019-01-15T14:13:03.681Z,3.83
2019-01-15T14:15:54.261Z,4.37
2019-01-15T14:18:47.445Z,4.83
2019-01-15T14:21:40.855Z,4.20
2019-01-15T14:24:28.843Z,4.33
2019-01-15T14:27:19.241Z,3.92
2019-01-15T14:30:12.865Z,4.25
2019-01-15T14:33:09.421Z,4.00
2019-01-15T14:36:15.008Z,4.50
2019-01-15T14:39:01.380Z,4.53
2019-01-15T14:41:47.946Z,4.87
2019-01-15T14:44:47.798Z,4.80
2019-01-15T14:47:41.300Z,4.73
2019-01-15T14:50:29.904Z,4.20
2019-01-15T14:53:16.424Z,6.03
2019-01-15T14:56:12.523Z,5.78
2019-01-15T14:59:08.918Z,5.70
2019-01-15T15:01:56.542Z,4.90
2019-01-15T15:04:44.982Z,5.15
2019-01-15T15:07:50.612Z,5.30
2019-01-15T15:10:36.789Z,5.00
2019-01-15T15:13:23.283Z,5.50
2019-01-15T15:16:10.850Z,5.20
2019-01-15T15:19:16.485Z,5.60
2019-01-15T15:22:02.668Z,5.78
2019-01-15T15:24:59.492Z,5.95
2019-01-15T15:27:59.047Z,5.33
2019-01-15T15:30:46.867Z,4.83
2019-01-15T15:33:22.540Z,5.30
2019-01-15T15:36:19.065Z,5.22
2019-01-15T15:39:04.752Z,5.20
2019-01-15T15:42:01.143Z,5.58
2019-01-15T15:44:47.348Z,5.30
2019-01-15T15:47:35.041Z,6.00
2019-01-15T15:50:22.307Z,5.30
2019-01-15T15:53:08.767Z,5.50
2019-01-15T15:55:54.775Z,5.70
2019-01-15T15:58:51.493Z,5.75
2019-01-15T16:01:44.816Z,5.00
2019-01-15T16:04:35.069Z,5.72
2019-01-15T16:07:34.824Z,4.83
2019-01-15T16:10:41.293Z,4.60
2019-01-15T16:13:47.155Z,5.15
2019-01-15T16:16:49.620Z,5.90
2019-01-15T16:19:47.270Z,4.97
2019-01-15T16:22:26.432Z,5.17
2019-01-15T16:25:16.340Z,4.80
2019-01-15T16:27:58.280Z,5.35
2019-01-15T16:30:42.821Z,5.90
2019-01-15T16:33:30.835Z,5.17
2019-01-15T16:36:21.375Z,5.50
2019-01-15T16:39:07.543Z,5.40
2019-01-15T16:41:53.553Z,5.60
2019-01-15T16:44:53.618Z,5.50
2019-01-15T16:47:31.813Z,5.80
2019-01-15T16:50:15.517Z,5.92
2019-01-15T16:53:03.154Z,6.45
2019-01-15T16:55:56.693Z,6.10
2019-01-15T16:58:42.913Z,6.53
2019-01-15T17:01:42.849Z,6.10
2019-01-15T17:04:33.300Z,6.42
2019-01-15T17:07:35.804Z,6.63
2019-01-15T17:10:39.789Z,6.30
2019-01-15T17:13:26.116Z,6.40
2019-01-15T17:16:12.337Z,6.70
2019-01-15T17:18:58.700Z,6.80
2019-01-15T17:21:46.257Z,6.83
2019-01-15T17:24:28.717Z,6.20
2019-01-15T17:27:23.891Z,6.40
2019-01-15T17:30:11.205Z,6.80
2019-01-15T17:33:04.750Z,7.30
2019-01-15T17:35:55.575Z,6.65
2019-01-15T17:38:39.530Z,6.40
2019-01-15T17:41:17.415Z,6.60
2019-01-15T17:44:06.080Z,6.95
2019-01-15T17:47:03.691Z,6.62
2019-01-15T17:49:51.387Z,7.35
2019-01-15T17:52:43.580Z,6.85
2019-01-15T17:55:36.450Z,6.30
2019-01-15T17:58:29.911Z,7.20
2019-01-15T18:01:36.270Z,6.92
2019-01-15T18:04:39.165Z,7.12
2019-01-15T18:07:41.991Z,7.35
2019-01-15T18:10:31.927Z,7.33
2019-01-15T18:13:19.006Z,7.33
2019-01-15T18:16:06.422Z,7.28
2019-01-15T18:18:44.876Z,7.05
2019-01-15T18:21:35.116Z,7.15
2019-01-15T18:24:25.405Z,7.53
2019-01-15T18:27:27.929Z,7.72
2019-01-15T18:30:18.308Z,7.07
2019-01-15T18:33:04.752Z,7.20
2019-01-15T18:35:54.816Z,6.50
2019-01-15T18:38:42.792Z,8.38
2019-01-15T18:41:48.764Z,7.20
2019-01-15T18:44:51.428Z,6.60
2019-01-15T18:47:51.179Z,6.60
2019-01-15T18:50:37.356Z,6.47
2019-01-15T18:53:24.795Z,7.50
2019-01-15T18:56:18.699Z,6.20
2019-01-15T18:59:05.312Z,6.78
2019-01-15T19:01:51.813Z,6.80
2019-01-15T19:04:57.176Z,7.00
2019-01-15T19:07:56.592Z,6.47
2019-01-15T19:10:42.789Z,6.03
2019-01-15T19:13:36.115Z,7.03
2019-01-15T19:16:26.504Z,6.37
2019-01-15T19:19:19.048Z,6.28
2019-01-15T19:22:12.361Z,6.78
2019-01-15T19:24:58.812Z,6.15
2019-01-15T19:27:58.440Z,6.00
2019-01-15T19:30:48.768Z,6.00
2019-01-15T19:33:34.901Z,6.20
2019-01-15T19:36:33.268Z,5.95
2019-01-15T19:39:15.455Z,6.60
2019-01-15T19:42:11.235Z,6.50
2019-01-15T19:44:55.305Z,5.90
2019-01-15T19:47:48.596Z,5.65
2019-01-15T19:50:45.388Z,5.78
2019-01-15T19:53:36.703Z,6.17
2019-01-15T19:56:16.519Z,5.45
2019-01-15T19:59:08.557Z,5.60
2019-01-15T20:01:50.900Z,5.75
2019-01-15T20:04:41.446Z,5.35
2019-01-15T20:07:32.268Z,5.00
2019-01-15T20:10:34.951Z,5.50
2019-01-15T20:13:21.727Z,5.87
2019-01-15T20:16:15.172Z,5.30
2019-01-15T20:19:08.484Z,5.95
2019-01-15T20:21:56.159Z,5.80
2019-01-15T20:24:42.469Z,5.70
2019-01-15T20:27:30.169Z,5.90
2019-01-15T20:30:16.143Z,6.00
2019-01-15T20:33:14.616Z,6.20
2019-01-15T20:36:11.391Z,6.50
2019-01-15T20:39:10.018Z,6.28
2019-01-15T20:42:06.951Z,6.45
2019-01-15T20:44:56.618Z,7.17
2019-01-15T20:47:53.320Z,6.62
2019-01-15T20:51:03.860Z,6.30
2019-01-15T20:53:49.233Z,6.00
2019-01-15T20:56:44.399Z,6.60
2019-01-15T20:59:35.268Z,7.53
2019-01-15T21:02:40.375Z,6.55
2019-01-15T21:05:27.080Z,6.80
2019-01-15T21:08:15.101Z,6.55
2019-01-15T21:11:13.892Z,7.50
2019-01-15T21:14:14.214Z,6.55
2019-01-15T21:17:25.162Z,6.77
2019-01-15T21:20:05.478Z,7.30
2019-01-15T21:23:11.866Z,7.33
2019-01-15T21:25:59.160Z,6.90
2019-01-15T21:28:51.931Z,7.17
2019-01-15T21:31:49.880Z,6.90
2019-01-15T21:37:54.363Z,7.37
2019-01-15T21:40:55.555Z,7.25
2019-01-15T21:43:47.734Z,7.15
2019-01-15T21:47:01.959Z,6.97
2019-01-15T21:50:07.421Z,7.10
2019-01-15T21:53:08.533Z,7.40
2019-01-15T21:55:51.762Z,6.58
2019-01-15T21:58:49.960Z,7.20
2019-01-15T22:01:43.695Z,7.40
2019-01-15T22:04:38.709Z,6.90
2019-01-15T22:07:34.147Z,7.55
2019-01-15T22:10:19.253Z,7.50
2019-01-15T22:13:26.003Z,8.53
2019-01-15T22:16:40.385Z,8.60
2019-01-15T22:19:40.273Z,8.60
2019-01-15T22:22:26.575Z,8.45
2019-01-15T22:25:12.551Z,8.08
2019-01-15T22:28:11.448Z,8.38
2019-01-15T22:31:01.447Z,8.05
2019-01-15T22:33:38.031Z,8.95
2019-01-15T22:36:24.790Z,8.30
2019-01-15T22:39:27.590Z,8.35
2019-01-15T22:42:27.600Z,8.35
2019-01-15T22:45:33.980Z,8.17
2019-01-15T22:48:20.789Z,8.40
2019-01-15T22:51:17.530Z,8.50
2019-01-15T22:54:08.540Z,8.78
2019-01-15T22:56:54.415Z,8.80
2019-01-15T22:59:41.333Z,8.97
2019-01-15T23:02:38.690Z,8.48
2019-01-15T23:05:25.814Z,8.35
2019-01-15T23:08:22.971Z,8.50
2019-01-15T23:11:11.033Z,8.83
2019-01-15T23:14:05.079Z,7.83
2019-01-15T23:16:44.309Z,7.67
2019-01-15T23:19:31.221Z,8.10
2019-01-15T23:22:31.179Z,8.15
2019-01-15T23:25:17.438Z,9.20
2019-01-15T23:28:15.100Z,8.30
2019-01-15T23:31:27.678Z,8.70
2019-01-15T23:34:14.192Z,8.93
2019-01-15T23:37:04.330Z,9.18
2019-01-15T23:39:59.227Z,8.85
2019-01-15T23:42:50.076Z,8.60
2019-01-15T23:45:35.699Z,9.50
2019-01-15T23:48:26.706Z,9.58
2019-01-15T23:51:23.395Z,8.90
2019-01-15T23:54:19.827Z,9.98
2019-01-15T23:56:58.736Z,8.60
2019-01-15T23:59:49.018Z,9.55
